HOURLY OBS INDEX

003

Kimberley - west

BROOME AIRPORT

Site: 003003
Alt: 7.4m
2km N of BROOME


  Time     Wind        Temp  DP   Baro     Rain since   Rain past  Vis(m), Cloud(base in m), Weather
  local        km/h                         9am  last   hr   10m    
Wed 13:00  ESE 26/ 35  34.6  3.6  1011.1    0.0   0.0   0.0   0.0   10000 
Wed 13:30   SE 24/ 33  34.1  4.3  1010.7    0.0   0.0   0.0   0.0   10000 
Wed 14:00   SE 24/ 32  34.5  2.6  1010.3    0.0   0.0   0.0   0.0   10000 
Wed 14:30  SSE 20/ 26  34.6  2.8  1010.2    0.0   0.0   0.0   0.0   10000 
Wed 15:00  SSE 15/ 20  33.7  3.0  1010.1    0.0   0.0   0.0   0.0   10000 
Wed 15:30  SSE 13/ 19  33.6  4.7  1010.1    0.0   0.0   0.0   0.0   10000 
Wed 16:00  SSE 13/ 17  32.8  8.5  1010.2    0.0   0.0   0.0   0.0   10000|OC3750 
Wed 16:30  SSE 11/ 15  32.2  7.7  1010.3    0.0   0.0   0.0   0.0   10000|BR3750 
Wed 17:00    S  7/ 11  32.0  6.4  1010.6    0.0   0.0   0.0   0.0   10000|BR3750 
Wed 17:30  SSW 13/ 17  30.7 10.4  1011.0    0.0   0.0   0.0   0.0   10000|OC3750 
Wed 18:00  SSW  9/ 13  29.9 12.4  1011.0    0.0   0.0   0.0   0.0   10000|BR3750 
Wed 18:30   SW 13/ 19  29.3 13.1  1011.6    0.0   0.0   0.0   0.0   10000 

BROOME NTC AWS

Site: 003102
Alt: 0.0m
5km SSW of BROOME


  Time     Wind        Temp  DP   Baro     Rain since   Rain past  Vis(m), Cloud(base in m), Weather
  local        km/h                         9am  last   hr   10m    
Wed 13:00  ESE 22/ 26  29.8----  1010.4   ----  ----  ----  ----   ----- 
Wed 13:30  ESE 20/ 24  30.9----  1010.0   ----  ----  ----  ----   ----- 
Wed 14:00   SE 20/ 22  31.4----  1009.7   ----  ----  ----  ----   ----- 
Wed 14:30   SE 17/ 19  32.1----  1009.6   ----  ----  ----  ----   ----- 
Wed 15:00   SE 15/ 17  31.9----  1009.5   ----  ----  ----  ----   ----- 
Wed 15:30  SSE 15/ 17  31.7----  1009.3   ----  ----  ----  ----   ----- 
Wed 16:00    S 15/ 17  30.5----  1009.4   ----  ----  ----  ----   ----- 
Wed 16:30    S 13/ 13  31.9----  1009.5   ----  ----  ----  ----   ----- 
Wed 17:00   SW 13/ 17  29.3----  1009.8   ----  ----  ----  ----   ----- 
Wed 17:30  WSW 17/ 20  27.9----  1010.2   ----  ----  ----  ----   ----- 
Wed 18:00   SW 17/ 19  27.7----  1010.3   ----  ----  ----  ----   ----- 
Wed 18:30   SW 19/ 24  28.3----  1010.9   ----  ----  ----  ----   ----- 

CAPE LEVEQUE AIRPORT

Site: 003LBD
Alt: m
176km NNE of BROOME


  Time     Wind        Temp  DP   Baro     Rain since   Rain past  Vis(m), Cloud(base in m), Weather
  local        km/h                         9am  last   hr   10m    
Wed 13:00  ESE 13/ 22  30.1 13.8  1010.9    0.0   0.0   0.0   0.0   10000 
Wed 13:30  ESE  9/ 20  31.3 12.6  1010.5    0.0   0.0   0.0   0.0   10000 
Wed 14:00    E 11/ 17  31.2 11.6  1010.1    0.0   0.0   0.0   0.0   10000 
Wed 14:30    E  7/ 19  32.0 11.7  1009.9    0.0   0.0   0.0   0.0   10000 
Wed 15:00    E  7/ 17  32.5 12.2  1009.8    0.0   0.0   0.0   0.0   10000 
Wed 15:30  WNW  7/ 13  30.8 17.1  1009.7    0.0   0.0   0.0   0.0   10000 
Wed 16:00   NW 11/ 15  29.4 18.8  1009.8    0.0   0.0   0.0   0.0   10000 
Wed 16:30  WNW  7/ 15  28.8 20.3  1009.8    0.0   0.0   0.0   0.0   10000 
Wed 17:00  WNW 11/ 17  26.9 21.2  1010.1    0.0   0.0   0.0   0.0   10000 
Wed 17:30   NW 11/ 19  26.3 21.9  1010.3    0.0   0.0   0.0   0.0   10000 
Wed 18:00    W  7/ 17  26.1 21.7  1010.7    0.0   0.0   0.0   0.0   10000 
Wed 18:30    W  9/ 17  26.0 21.7  1011.2    0.0   0.0   0.0   0.0   10000 

CURTIN AERO

Site: 003080
Alt: 77.5m
36km SE of DERBY


  Time     Wind        Temp  DP   Baro     Rain since   Rain past  Vis(m), Cloud(base in m), Weather
  local        km/h                         9am  last   hr   10m    
Wed 13:00   SE 19/ 33  35.4  0.5  1010.0    0.0   0.0   0.0   0.0   10000 
Wed 13:30   SE 20/ 32  36.3  1.2  1009.5    0.0   0.0   0.0   0.0   10000 
Wed 14:00  ESE 26/ 35  36.0  0.9  1009.0    0.0   0.0   0.0   0.0   10000 
Wed 14:30   SE 20/ 45  35.8  0.8  1008.8    0.0   0.0   0.0   0.0   10000 
Wed 15:00   SE 20/ 32  35.4  0.5  1008.6    0.0   0.0   0.0   0.0   10000 
Wed 15:30   SE 19/ 26  35.6  0.6  1008.8    0.0   0.0   0.0   0.0   10000 
Wed 16:00  SSE 20/ 26  34.8  1.2  1008.8    0.0   0.0   0.0   0.0   10000 
Wed 16:30  SSE 17/ 26  34.9  1.3  1009.2    0.0   0.0   0.0   0.0   10000 
Wed 17:00  SSE 17/ 24  34.2  1.9  1009.4    0.0   0.0   0.0   0.0   10000 
Wed 17:30    S 15/ 19  33.2  2.1  1009.6    0.0   0.0   0.0   0.0   10000 
Wed 18:00    S 13/ 15  31.7  2.8  1009.9    0.0   0.0   0.0   0.0   10000|SC3450 
Wed 18:30    S 13/ 15  30.7  2.9  1010.4    0.0   0.0   0.0   0.0   10000 

DERBY AERO

Site: 003032
Alt: 6.2m
8km SSE of DERBY


  Time     Wind        Temp  DP   Baro     Rain since   Rain past  Vis(m), Cloud(base in m), Weather
  local        km/h                         9am  last   hr   10m    
Wed 13:00  ESE 22/ 33  35.5  1.8  1010.1    0.0   0.0   0.0   0.0   10000 
Wed 13:30   SE 19/ 32  35.7  0.7  1009.5    0.0   0.0   0.0   0.0   10000 
Wed 14:00   SE 22/ 35  36.0 -0.4  1009.3    0.0   0.0   0.0   0.0   10000 
Wed 14:30  SSE 19/ 24  36.2  1.1  1008.8    0.0   0.0   0.0   0.0   10000 
Wed 15:00  ESE 17/ 24  35.8  0.8  1008.8    0.0   0.0   0.0   0.0   10000 
Wed 15:30  ESE 22/ 30  36.1  1.0  1008.9    0.0   0.0   0.0   0.0   10000 
Wed 16:00  ESE 20/ 30  35.6  1.8  1008.9    0.0   0.0   0.0   0.0   10000 
Wed 16:30   SE 19/ 26  35.2  1.5  1009.2    0.0   0.0   0.0   0.0   10000 
Wed 17:00   SE 19/ 24  34.8  1.2  1009.4    0.0   0.0   0.0   0.0   10000 
Wed 17:30  SSE 17/ 22  34.1  1.8  1009.7    0.0   0.0   0.0   0.0   10000 
Wed 18:00  SSE 15/ 19  32.9  1.9  1010.0    0.0   0.0   0.0   0.0   10000 
Wed 18:30    S 17/ 20  32.2  3.2  1010.5    0.0   0.0   0.0   0.0   10000 

FITZROY CROSSING AERO

Site: 003093
Alt: 114.5m
3km E of FITZROY CROSSING


  Time     Wind        Temp  DP   Baro     Rain since   Rain past  Vis(m), Cloud(base in m), Weather
  local        km/h                         9am  last   hr   10m    
Wed 13:00  ESE 15/ 28  36.3 -1.6  1010.8    0.0   0.0   0.0   0.0   ----- 
Wed 13:21  SSE 32/ 56  36.5 -1.4  1010.4    0.0   0.0  ----   0.0   ----- 
Wed 13:30   SE 20/ 35  36.1 -1.7  1010.2    0.0   0.0   0.0   0.0   ----- 
Wed 14:00  SSE 19/ 26  36.3 -1.6  1009.9    0.0   0.0   0.0   0.0   ----- 
Wed 14:30  SSE 17/ 30  37.1 -1.0  1009.6    0.0   0.0   0.0   0.0   ----- 
Wed 15:00   SE 19/ 32  36.5 -1.4  1009.4    0.0   0.0   0.0   0.0   ----- 
Wed 15:30  SSE 20/ 28  36.2 -1.7  1009.5    0.0   0.0   0.0   0.0   ----- 
Wed 16:00  SSE 17/ 30  35.8 -2.0  1009.4    0.0   0.0   0.0   0.0   ----- 
Wed 16:30  SSE 19/ 28  35.4 -0.8  1009.7    0.0   0.0   0.0   0.0   ----- 
Wed 17:00  SSE 17/ 22  34.3 -1.7  1010.0    0.0   0.0   0.0   0.0   ----- 
Wed 17:30    S 13/ 17  33.4 -1.0  1010.3    0.0   0.0   0.0   0.0   ----- 
Wed 18:00    S 17/ 24  32.6 -1.7  1010.7    0.0   0.0   0.0   0.0   ----- 
Wed 18:30    S 17/ 22  32.0 -2.1  1011.4    0.0   0.0   0.0   0.0   ----- 

WEST ROEBUCK

Site: 003096
Alt: 32.0m
11km NE of BROOME


  Time     Wind        Temp  DP   Baro     Rain since   Rain past  Vis(m), Cloud(base in m), Weather
  local        km/h                         9am  last   hr   10m    
Wed 13:00   NE 20/ 33  34.8----  ------    0.0   0.0   0.0   0.0   ----- 
Wed 13:30   NE 17/ 32  35.4----  ------    0.0   0.0   0.0   0.0   ----- 
Wed 14:00   NE 19/ 28  35.6----  ------    0.0   0.0   0.0   0.0   ----- 
Wed 14:30   NE 15/ 26  36.4----  ------    0.0   0.0   0.0   0.0   ----- 
Wed 15:00    E 13/ 26  34.8----  ------    0.0   0.0   0.0   0.0   ----- 
Wed 15:30    E 15/ 26  34.2----  ------    0.0   0.0   0.0   0.0   ----- 
Wed 16:00    E 11/ 19  33.8----  ------    0.0   0.0   0.0   0.0   ----- 
Wed 16:30    E  9/ 15  32.7----  ------    0.0   0.0   0.0   0.0   ----- 
Wed 17:00    E  7/  9  31.4----  ------    0.0   0.0   0.0   0.0   ----- 
Wed 17:30  ESE  7/  9  30.0----  ------    0.0   0.0   0.0   0.0   ----- 
Wed 18:00    S  7/ 11  28.5----  ------    0.0   0.0   0.0   0.0   ----- 
Wed 18:30  SSW  9/ 13  27.5----  ------    0.0   0.0   0.0   0.0   -----